sensor_id;sensor_type;location;lat;lon;timestamp;P1;durP1;ratioP1;P2;durP2;ratioP2
23743;SDS011;12052;53.478;10.182;2023-04-08T00:01:37;17.30;;;8.02;;
23743;SDS011;12052;53.478;10.182;2023-04-08T00:04:02;20.52;;;8.25;;
23743;SDS011;12052;53.478;10.182;2023-04-08T00:06:28;20.08;;;8.65;;
23743;SDS011;12052;53.478;10.182;2023-04-08T00:08:54;20.92;;;8.48;;
23743;SDS011;12052;53.478;10.182;2023-04-08T00:11:19;21.75;;;8.93;;
23743;SDS011;12052;53.478;10.182;2023-04-08T00:13:45;21.50;;;8.45;;
23743;SDS011;12052;53.478;10.182;2023-04-08T00:16:11;19.65;;;8.15;;
23743;SDS011;12052;53.478;10.182;2023-04-08T00:18:36;22.65;;;8.35;;
23743;SDS011;12052;53.478;10.182;2023-04-08T00:21:02;21.98;;;9.02;;
23743;SDS011;12052;53.478;10.182;2023-04-08T00:23:28;21.38;;;8.88;;
23743;SDS011;12052;53.478;10.182;2023-04-08T00:25:53;22.80;;;8.88;;
23743;SDS011;12052;53.478;10.182;2023-04-08T00:28:19;20.13;;;9.48;;
23743;SDS011;12052;53.478;10.182;2023-04-08T00:30:45;26.58;;;9.57;;
23743;SDS011;12052;53.478;10.182;2023-04-08T00:33:11;23.08;;;9.32;;
23743;SDS011;12052;53.478;10.182;2023-04-08T00:35:36;22.50;;;9.05;;
23743;SDS011;12052;53.478;10.182;2023-04-08T00:38:02;24.92;;;9.13;;
23743;SDS011;12052;53.478;10.182;2023-04-08T00:40:31;20.67;;;8.57;;
23743;SDS011;12052;53.478;10.182;2023-04-08T00:42:58;17.50;;;7.90;;
23743;SDS011;12052;53.478;10.182;2023-04-08T00:45:24;23.52;;;8.93;;
23743;SDS011;12052;53.478;10.182;2023-04-08T00:47:50;19.48;;;8.63;;
23743;SDS011;12052;53.478;10.182;2023-04-08T00:50:16;24.50;;;8.43;;
23743;SDS011;12052;53.478;10.182;2023-04-08T00:52:42;17.58;;;7.82;;
23743;SDS011;12052;53.478;10.182;2023-04-08T00:55:08;25.35;;;8.77;;
23743;SDS011;12052;53.478;10.182;2023-04-08T00:57:33;17.00;;;7.75;;
23743;SDS011;12052;53.478;10.182;2023-04-08T00:59:59;24.58;;;8.88;;
23743;SDS011;12052;53.478;10.182;2023-04-08T01:05:07;20.73;;;8.30;;
23743;SDS011;12052;53.478;10.182;2023-04-08T01:07:46;13.93;;;7.07;;
23743;SDS011;12052;53.478;10.182;2023-04-08T01:10:16;20.58;;;8.25;;
23743;SDS011;12052;53.478;10.182;2023-04-08T01:13:02;16.25;;;7.35;;
23743;SDS011;12052;53.478;10.182;2023-04-08T01:15:32;22.77;;;7.38;;
23743;SDS011;12052;53.478;10.182;2023-04-08T01:18:00;16.85;;;7.03;;
23743;SDS011;12052;53.478;10.182;2023-04-08T01:20:31;15.43;;;6.93;;
23743;SDS011;12052;53.478;10.182;2023-04-08T01:25:29;19.92;;;6.93;;
23743;SDS011;12052;53.478;10.182;2023-04-08T01:27:57;18.10;;;7.25;;
23743;SDS011;12052;53.478;10.182;2023-04-08T01:30:37;16.25;;;7.40;;
23743;SDS011;12052;53.478;10.182;2023-04-08T01:33:04;16.90;;;6.57;;
23743;SDS011;12052;53.478;10.182;2023-04-08T01:35:31;18.25;;;7.32;;
23743;SDS011;12052;53.478;10.182;2023-04-08T01:37:58;16.27;;;6.72;;
23743;SDS011;12052;53.478;10.182;2023-04-08T01:40:25;18.63;;;7.43;;
23743;SDS011;12052;53.478;10.182;2023-04-08T01:42:52;12.82;;;6.20;;
23743;SDS011;12052;53.478;10.182;2023-04-08T01:45:20;12.82;;;6.60;;
23743;SDS011;12052;53.478;10.182;2023-04-08T01:47:47;14.73;;;6.90;;
23743;SDS011;12052;53.478;10.182;2023-04-08T01:50:14;16.30;;;7.22;;
23743;SDS011;12052;53.478;10.182;2023-04-08T01:52:42;18.35;;;7.35;;
23743;SDS011;12052;53.478;10.182;2023-04-08T01:55:10;12.95;;;6.68;;
23743;SDS011;12052;53.478;10.182;2023-04-08T01:57:36;16.75;;;8.23;;
23743;SDS011;12052;53.478;10.182;2023-04-08T02:00:12;18.08;;;7.72;;
23743;SDS011;12052;53.478;10.182;2023-04-08T02:02:39;14.10;;;6.60;;
23743;SDS011;12052;53.478;10.182;2023-04-08T02:05:07;14.85;;;7.18;;
23743;SDS011;12052;53.478;10.182;2023-04-08T02:07:33;13.38;;;6.88;;
23743;SDS011;12052;53.478;10.182;2023-04-08T02:09:58;19.88;;;7.50;;
23743;SDS011;12052;53.478;10.182;2023-04-08T02:12:24;17.52;;;6.78;;
23743;SDS011;12052;53.478;10.182;2023-04-08T02:14:51;14.30;;;7.18;;
23743;SDS011;12052;53.478;10.182;2023-04-08T02:17:28;21.05;;;7.10;;
23743;SDS011;12052;53.478;10.182;2023-04-08T02:20:19;15.13;;;6.47;;
23743;SDS011;12052;53.478;10.182;2023-04-08T02:22:59;15.82;;;7.78;;
23743;SDS011;12052;53.478;10.182;2023-04-08T02:25:32;19.38;;;7.50;;
23743;SDS011;12052;53.478;10.182;2023-04-08T02:28:05;15.55;;;7.45;;
23743;SDS011;12052;53.478;10.182;2023-04-08T02:30:34;17.50;;;6.85;;
23743;SDS011;12052;53.478;10.182;2023-04-08T02:33:02;15.50;;;7.82;;
23743;SDS011;12052;53.478;10.182;2023-04-08T02:35:29;14.68;;;6.45;;
23743;SDS011;12052;53.478;10.182;2023-04-08T02:37:55;18.58;;;6.50;;
23743;SDS011;12052;53.478;10.182;2023-04-08T02:40:24;14.93;;;6.68;;
23743;SDS011;12052;53.478;10.182;2023-04-08T02:42:51;13.93;;;6.40;;
23743;SDS011;12052;53.478;10.182;2023-04-08T02:45:17;13.27;;;6.70;;
23743;SDS011;12052;53.478;10.182;2023-04-08T02:47:43;18.63;;;7.40;;
23743;SDS011;12052;53.478;10.182;2023-04-08T02:50:09;16.98;;;7.80;;
23743;SDS011;12052;53.478;10.182;2023-04-08T02:52:35;17.27;;;7.65;;
23743;SDS011;12052;53.478;10.182;2023-04-08T02:55:00;18.38;;;7.85;;
23743;SDS011;12052;53.478;10.182;2023-04-08T02:57:26;16.02;;;7.13;;
23743;SDS011;12052;53.478;10.182;2023-04-08T02:59:51;13.55;;;6.22;;
23743;SDS011;12052;53.478;10.182;2023-04-08T03:02:17;13.98;;;7.45;;
23743;SDS011;12052;53.478;10.182;2023-04-08T03:04:43;14.45;;;6.72;;
23743;SDS011;12052;53.478;10.182;2023-04-08T03:07:08;12.45;;;6.90;;
23743;SDS011;12052;53.478;10.182;2023-04-08T03:09:34;17.27;;;7.50;;
23743;SDS011;12052;53.478;10.182;2023-04-08T03:11:59;17.95;;;7.07;;
23743;SDS011;12052;53.478;10.182;2023-04-08T03:14:25;15.88;;;7.13;;
23743;SDS011;12052;53.478;10.182;2023-04-08T03:16:51;19.70;;;7.63;;
23743;SDS011;12052;53.478;10.182;2023-04-08T03:19:16;16.90;;;8.10;;
23743;SDS011;12052;53.478;10.182;2023-04-08T03:21:42;16.38;;;7.28;;
23743;SDS011;12052;53.478;10.182;2023-04-08T03:24:07;14.68;;;7.55;;
23743;SDS011;12052;53.478;10.182;2023-04-08T03:26:33;15.52;;;8.00;;
23743;SDS011;12052;53.478;10.182;2023-04-08T03:28:58;19.02;;;7.72;;
23743;SDS011;12052;53.478;10.182;2023-04-08T03:31:24;22.10;;;8.50;;
23743;SDS011;12052;53.478;10.182;2023-04-08T03:33:50;22.95;;;8.93;;
23743;SDS011;12052;53.478;10.182;2023-04-08T03:36:15;23.88;;;8.10;;
23743;SDS011;12052;53.478;10.182;2023-04-08T03:38:41;21.95;;;9.55;;
23743;SDS011;12052;53.478;10.182;2023-04-08T03:41:08;22.05;;;9.50;;
23743;SDS011;12052;53.478;10.182;2023-04-08T03:43:33;22.85;;;9.00;;
23743;SDS011;12052;53.478;10.182;2023-04-08T03:45:59;20.17;;;8.48;;
23743;SDS011;12052;53.478;10.182;2023-04-08T03:48:24;21.02;;;8.63;;
23743;SDS011;12052;53.478;10.182;2023-04-08T03:50:50;20.63;;;8.77;;
23743;SDS011;12052;53.478;10.182;2023-04-08T03:53:15;17.35;;;8.63;;
23743;SDS011;12052;53.478;10.182;2023-04-08T03:55:41;24.45;;;9.23;;
23743;SDS011;12052;53.478;10.182;2023-04-08T03:58:06;16.65;;;7.63;;
23743;SDS011;12052;53.478;10.182;2023-04-08T04:00:32;26.40;;;9.38;;
23743;SDS011;12052;53.478;10.182;2023-04-08T04:02:59;22.67;;;8.55;;
23743;SDS011;12052;53.478;10.182;2023-04-08T04:05:25;30.20;;;9.38;;
23743;SDS011;12052;53.478;10.182;2023-04-08T04:07:51;27.70;;;9.52;;
23743;SDS011;12052;53.478;10.182;2023-04-08T04:10:16;27.58;;;9.68;;
23743;SDS011;12052;53.478;10.182;2023-04-08T04:12:42;25.08;;;9.80;;
23743;SDS011;12052;53.478;10.182;2023-04-08T04:15:08;26.67;;;8.95;;
23743;SDS011;12052;53.478;10.182;2023-04-08T04:17:34;21.83;;;8.10;;
23743;SDS011;12052;53.478;10.182;2023-04-08T04:20:02;30.33;;;10.68;;
23743;SDS011;12052;53.478;10.182;2023-04-08T04:22:29;22.75;;;9.70;;
23743;SDS011;12052;53.478;10.182;2023-04-08T04:24:54;25.40;;;10.40;;
23743;SDS011;12052;53.478;10.182;2023-04-08T04:27:20;21.52;;;9.93;;
23743;SDS011;12052;53.478;10.182;2023-04-08T04:29:45;24.58;;;9.85;;
23743;SDS011;12052;53.478;10.182;2023-04-08T04:32:11;26.35;;;9.73;;
23743;SDS011;12052;53.478;10.182;2023-04-08T04:34:36;20.63;;;9.55;;
23743;SDS011;12052;53.478;10.182;2023-04-08T04:37:02;24.60;;;9.90;;
23743;SDS011;12052;53.478;10.182;2023-04-08T04:39:28;24.67;;;9.65;;
23743;SDS011;12052;53.478;10.182;2023-04-08T04:41:53;24.55;;;10.15;;
23743;SDS011;12052;53.478;10.182;2023-04-08T04:44:19;22.17;;;9.68;;
23743;SDS011;12052;53.478;10.182;2023-04-08T04:46:44;23.33;;;8.35;;
23743;SDS011;12052;53.478;10.182;2023-04-08T04:49:10;23.55;;;9.23;;
23743;SDS011;12052;53.478;10.182;2023-04-08T04:51:36;26.08;;;9.95;;
23743;SDS011;12052;53.478;10.182;2023-04-08T04:54:01;26.58;;;10.10;;
23743;SDS011;12052;53.478;10.182;2023-04-08T04:56:27;24.60;;;9.65;;
23743;SDS011;12052;53.478;10.182;2023-04-08T04:58:52;25.98;;;11.18;;
23743;SDS011;12052;53.478;10.182;2023-04-08T05:01:18;26.13;;;9.48;;
23743;SDS011;12052;53.478;10.182;2023-04-08T05:03:44;27.35;;;9.90;;
23743;SDS011;12052;53.478;10.182;2023-04-08T05:06:09;27.63;;;11.70;;
23743;SDS011;12052;53.478;10.182;2023-04-08T05:08:35;21.75;;;9.93;;
23743;SDS011;12052;53.478;10.182;2023-04-08T05:11:01;27.08;;;10.82;;
23743;SDS011;12052;53.478;10.182;2023-04-08T05:13:27;20.95;;;8.98;;
23743;SDS011;12052;53.478;10.182;2023-04-08T05:15:53;25.05;;;10.85;;
23743;SDS011;12052;53.478;10.182;2023-04-08T05:18:18;23.23;;;9.60;;
23743;SDS011;12052;53.478;10.182;2023-04-08T05:20:44;26.27;;;10.27;;
23743;SDS011;12052;53.478;10.182;2023-04-08T05:23:10;24.58;;;10.63;;
23743;SDS011;12052;53.478;10.182;2023-04-08T05:25:36;33.42;;;11.40;;
23743;SDS011;12052;53.478;10.182;2023-04-08T05:28:02;19.15;;;9.88;;
23743;SDS011;12052;53.478;10.182;2023-04-08T05:30:28;24.40;;;10.13;;
23743;SDS011;12052;53.478;10.182;2023-04-08T05:32:54;27.92;;;10.45;;
23743;SDS011;12052;53.478;10.182;2023-04-08T05:35:20;25.38;;;10.07;;
23743;SDS011;12052;53.478;10.182;2023-04-08T05:37:45;26.55;;;9.90;;
23743;SDS011;12052;53.478;10.182;2023-04-08T05:40:11;22.88;;;10.10;;
23743;SDS011;12052;53.478;10.182;2023-04-08T05:42:37;25.38;;;9.85;;
23743;SDS011;12052;53.478;10.182;2023-04-08T05:45:02;23.67;;;9.80;;
23743;SDS011;12052;53.478;10.182;2023-04-08T05:47:28;31.20;;;10.60;;
23743;SDS011;12052;53.478;10.182;2023-04-08T05:49:54;23.08;;;8.63;;
23743;SDS011;12052;53.478;10.182;2023-04-08T05:52:20;26.60;;;10.68;;
23743;SDS011;12052;53.478;10.182;2023-04-08T05:54:45;30.38;;;11.23;;
23743;SDS011;12052;53.478;10.182;2023-04-08T05:57:11;21.52;;;9.70;;
23743;SDS011;12052;53.478;10.182;2023-04-08T05:59:37;23.05;;;8.38;;
23743;SDS011;12052;53.478;10.182;2023-04-08T06:02:02;28.08;;;11.07;;
23743;SDS011;12052;53.478;10.182;2023-04-08T06:04:28;25.98;;;11.23;;
23743;SDS011;12052;53.478;10.182;2023-04-08T06:06:54;24.77;;;9.75;;
23743;SDS011;12052;53.478;10.182;2023-04-08T06:09:23;20.30;;;9.20;;
23743;SDS011;12052;53.478;10.182;2023-04-08T06:11:49;25.55;;;9.63;;
23743;SDS011;12052;53.478;10.182;2023-04-08T06:14:15;25.05;;;9.63;;
23743;SDS011;12052;53.478;10.182;2023-04-08T06:16:41;18.45;;;8.57;;
23743;SDS011;12052;53.478;10.182;2023-04-08T06:19:06;17.88;;;8.95;;
23743;SDS011;12052;53.478;10.182;2023-04-08T06:21:32;15.35;;;7.90;;
23743;SDS011;12052;53.478;10.182;2023-04-08T06:23:57;18.02;;;8.73;;
23743;SDS011;12052;53.478;10.182;2023-04-08T06:26:23;24.08;;;9.60;;
23743;SDS011;12052;53.478;10.182;2023-04-08T06:28:48;17.90;;;9.30;;
23743;SDS011;12052;53.478;10.182;2023-04-08T06:31:14;20.38;;;8.27;;
23743;SDS011;12052;53.478;10.182;2023-04-08T06:33:40;21.75;;;8.93;;
23743;SDS011;12052;53.478;10.182;2023-04-08T06:36:06;27.17;;;9.57;;
23743;SDS011;12052;53.478;10.182;2023-04-08T06:38:32;19.55;;;8.63;;
23743;SDS011;12052;53.478;10.182;2023-04-08T06:41:02;24.67;;;9.07;;
23743;SDS011;12052;53.478;10.182;2023-04-08T06:43:28;20.27;;;9.07;;
23743;SDS011;12052;53.478;10.182;2023-04-08T06:45:54;27.27;;;9.60;;
23743;SDS011;12052;53.478;10.182;2023-04-08T06:48:20;25.60;;;11.02;;
23743;SDS011;12052;53.478;10.182;2023-04-08T06:50:47;27.10;;;10.00;;
23743;SDS011;12052;53.478;10.182;2023-04-08T06:53:13;23.13;;;9.35;;
23743;SDS011;12052;53.478;10.182;2023-04-08T06:55:39;22.08;;;9.65;;
23743;SDS011;12052;53.478;10.182;2023-04-08T06:58:04;19.17;;;9.55;;
23743;SDS011;12052;53.478;10.182;2023-04-08T07:00:30;28.38;;;9.23;;
23743;SDS011;12052;53.478;10.182;2023-04-08T07:02:56;22.75;;;8.80;;
23743;SDS011;12052;53.478;10.182;2023-04-08T07:05:21;23.65;;;9.50;;
23743;SDS011;12052;53.478;10.182;2023-04-08T07:07:47;21.92;;;9.38;;
23743;SDS011;12052;53.478;10.182;2023-04-08T07:10:12;30.67;;;10.13;;
23743;SDS011;12052;53.478;10.182;2023-04-08T07:12:38;24.95;;;10.52;;
23743;SDS011;12052;53.478;10.182;2023-04-08T07:15:04;26.80;;;10.27;;
23743;SDS011;12052;53.478;10.182;2023-04-08T07:17:30;23.42;;;10.05;;
23743;SDS011;12052;53.478;10.182;2023-04-08T07:19:56;23.67;;;9.82;;
23743;SDS011;12052;53.478;10.182;2023-04-08T07:22:21;21.75;;;9.27;;
23743;SDS011;12052;53.478;10.182;2023-04-08T07:24:47;20.25;;;8.77;;
23743;SDS011;12052;53.478;10.182;2023-04-08T07:27:14;19.40;;;8.38;;
23743;SDS011;12052;53.478;10.182;2023-04-08T07:29:40;21.70;;;9.40;;
23743;SDS011;12052;53.478;10.182;2023-04-08T07:32:06;20.35;;;9.15;;
23743;SDS011;12052;53.478;10.182;2023-04-08T07:34:33;26.67;;;9.55;;
23743;SDS011;12052;53.478;10.182;2023-04-08T07:37:00;25.27;;;9.80;;
23743;SDS011;12052;53.478;10.182;2023-04-08T07:39:25;22.05;;;9.55;;
23743;SDS011;12052;53.478;10.182;2023-04-08T07:41:51;31.10;;;11.35;;
23743;SDS011;12052;53.478;10.182;2023-04-08T07:44:16;25.23;;;9.50;;
23743;SDS011;12052;53.478;10.182;2023-04-08T07:46:43;29.83;;;11.65;;
23743;SDS011;12052;53.478;10.182;2023-04-08T07:49:10;24.65;;;10.23;;
23743;SDS011;12052;53.478;10.182;2023-04-08T07:51:36;29.67;;;10.75;;
23743;SDS011;12052;53.478;10.182;2023-04-08T07:54:02;28.33;;;9.73;;
23743;SDS011;12052;53.478;10.182;2023-04-08T07:56:27;26.40;;;10.52;;
23743;SDS011;12052;53.478;10.182;2023-04-08T07:58:53;29.65;;;10.60;;
23743;SDS011;12052;53.478;10.182;2023-04-08T08:01:20;29.20;;;10.88;;
23743;SDS011;12052;53.478;10.182;2023-04-08T08:03:50;29.63;;;11.13;;
23743;SDS011;12052;53.478;10.182;2023-04-08T08:06:16;26.30;;;10.27;;
23743;SDS011;12052;53.478;10.182;2023-04-08T08:08:41;22.15;;;9.32;;
23743;SDS011;12052;53.478;10.182;2023-04-08T08:11:07;27.35;;;10.90;;
23743;SDS011;12052;53.478;10.182;2023-04-08T08:13:33;23.98;;;10.02;;
23743;SDS011;12052;53.478;10.182;2023-04-08T08:15:59;24.67;;;10.00;;
23743;SDS011;12052;53.478;10.182;2023-04-08T08:18:24;27.85;;;8.77;;
23743;SDS011;12052;53.478;10.182;2023-04-08T08:20:50;23.83;;;10.07;;
23743;SDS011;12052;53.478;10.182;2023-04-08T08:23:15;25.25;;;9.10;;
23743;SDS011;12052;53.478;10.182;2023-04-08T08:25:41;22.38;;;9.20;;
23743;SDS011;12052;53.478;10.182;2023-04-08T08:28:06;23.10;;;8.77;;
23743;SDS011;12052;53.478;10.182;2023-04-08T08:30:32;22.25;;;10.00;;
23743;SDS011;12052;53.478;10.182;2023-04-08T08:32:58;18.77;;;8.93;;
23743;SDS011;12052;53.478;10.182;2023-04-08T08:35:24;26.15;;;8.48;;
23743;SDS011;12052;53.478;10.182;2023-04-08T08:37:50;25.10;;;9.93;;
23743;SDS011;12052;53.478;10.182;2023-04-08T08:40:16;29.05;;;9.98;;
23743;SDS011;12052;53.478;10.182;2023-04-08T08:42:41;24.20;;;9.60;;
23743;SDS011;12052;53.478;10.182;2023-04-08T08:45:14;25.23;;;9.43;;
23743;SDS011;12052;53.478;10.182;2023-04-08T08:47:40;26.98;;;9.80;;
23743;SDS011;12052;53.478;10.182;2023-04-08T08:50:05;22.17;;;9.55;;
23743;SDS011;12052;53.478;10.182;2023-04-08T08:52:31;28.02;;;10.00;;
23743;SDS011;12052;53.478;10.182;2023-04-08T08:54:57;24.55;;;9.43;;
23743;SDS011;12052;53.478;10.182;2023-04-08T08:57:23;23.00;;;8.88;;
23743;SDS011;12052;53.478;10.182;2023-04-08T08:59:49;17.40;;;9.63;;
23743;SDS011;12052;53.478;10.182;2023-04-08T09:02:28;21.27;;;9.05;;
23743;SDS011;12052;53.478;10.182;2023-04-08T09:04:55;27.52;;;9.48;;
23743;SDS011;12052;53.478;10.182;2023-04-08T09:07:23;25.63;;;9.70;;
23743;SDS011;12052;53.478;10.182;2023-04-08T09:09:52;27.00;;;9.88;;
23743;SDS011;12052;53.478;10.182;2023-04-08T09:12:18;22.50;;;9.63;;
23743;SDS011;12052;53.478;10.182;2023-04-08T09:14:44;19.98;;;8.68;;
23743;SDS011;12052;53.478;10.182;2023-04-08T09:17:10;18.30;;;8.23;;
23743;SDS011;12052;53.478;10.182;2023-04-08T09:19:36;19.65;;;8.95;;
23743;SDS011;12052;53.478;10.182;2023-04-08T09:22:05;23.58;;;10.07;;
23743;SDS011;12052;53.478;10.182;2023-04-08T09:24:33;18.83;;;8.90;;
23743;SDS011;12052;53.478;10.182;2023-04-08T09:26:59;21.30;;;8.88;;
23743;SDS011;12052;53.478;10.182;2023-04-08T09:29:25;20.63;;;8.90;;
23743;SDS011;12052;53.478;10.182;2023-04-08T09:31:54;18.27;;;7.95;;
23743;SDS011;12052;53.478;10.182;2023-04-08T09:34:21;23.92;;;8.43;;
23743;SDS011;12052;53.478;10.182;2023-04-08T09:36:50;19.48;;;8.82;;
23743;SDS011;12052;53.478;10.182;2023-04-08T09:39:17;20.52;;;8.75;;
23743;SDS011;12052;53.478;10.182;2023-04-08T09:41:43;15.57;;;7.50;;
23743;SDS011;12052;53.478;10.182;2023-04-08T09:44:13;19.70;;;8.55;;
23743;SDS011;12052;53.478;10.182;2023-04-08T09:49:10;16.63;;;8.25;;
23743;SDS011;12052;53.478;10.182;2023-04-08T09:54:31;23.77;;;8.90;;
23743;SDS011;12052;53.478;10.182;2023-04-08T09:57:40;20.48;;;9.27;;
23743;SDS011;12052;53.478;10.182;2023-04-08T10:03:14;23.30;;;9.63;;
23743;SDS011;12052;53.478;10.182;2023-04-08T10:05:35;25.13;;;10.85;;
23743;SDS011;12052;53.478;10.182;2023-04-08T10:08:04;25.40;;;9.80;;
23743;SDS011;12052;53.478;10.182;2023-04-08T10:10:31;24.70;;;9.13;;
23743;SDS011;12052;53.478;10.182;2023-04-08T10:13:03;20.73;;;9.55;;
23743;SDS011;12052;53.478;10.182;2023-04-08T10:15:30;24.50;;;10.25;;
23743;SDS011;12052;53.478;10.182;2023-04-08T10:23:00;23.85;;;10.35;;
23743;SDS011;12052;53.478;10.182;2023-04-08T10:25:40;21.58;;;9.18;;
23743;SDS011;12052;53.478;10.182;2023-04-08T10:35:37;19.33;;;10.00;;
23743;SDS011;12052;53.478;10.182;2023-04-08T10:38:06;20.90;;;9.65;;
23743;SDS011;12052;53.478;10.182;2023-04-08T10:40:36;21.40;;;10.07;;
23743;SDS011;12052;53.478;10.182;2023-04-08T10:43:06;21.10;;;8.95;;
23743;SDS011;12052;53.478;10.182;2023-04-08T10:45:37;22.00;;;9.32;;
23743;SDS011;12052;53.478;10.182;2023-04-08T10:50:36;19.13;;;8.90;;
23743;SDS011;12052;53.478;10.182;2023-04-08T10:53:01;17.80;;;9.95;;
23743;SDS011;12052;53.478;10.182;2023-04-08T10:55:27;20.17;;;8.82;;
23743;SDS011;12052;53.478;10.182;2023-04-08T10:57:53;24.77;;;10.63;;
23743;SDS011;12052;53.478;10.182;2023-04-08T11:00:19;22.33;;;9.93;;
23743;SDS011;12052;53.478;10.182;2023-04-08T11:03:04;17.45;;;8.45;;
23743;SDS011;12052;53.478;10.182;2023-04-08T11:05:31;17.75;;;8.95;;
23743;SDS011;12052;53.478;10.182;2023-04-08T11:07:57;19.08;;;8.70;;
23743;SDS011;12052;53.478;10.182;2023-04-08T11:10:24;18.92;;;8.60;;
23743;SDS011;12052;53.478;10.182;2023-04-08T11:12:51;19.17;;;9.65;;
23743;SDS011;12052;53.478;10.182;2023-04-08T11:15:18;18.77;;;9.05;;
23743;SDS011;12052;53.478;10.182;2023-04-08T11:17:45;20.13;;;10.15;;
23743;SDS011;12052;53.478;10.182;2023-04-08T11:20:12;24.15;;;10.32;;
23743;SDS011;12052;53.478;10.182;2023-04-08T11:22:38;28.25;;;10.88;;
23743;SDS011;12052;53.478;10.182;2023-04-08T11:25:04;24.20;;;11.38;;
23743;SDS011;12052;53.478;10.182;2023-04-08T11:27:34;29.05;;;11.73;;
23743;SDS011;12052;53.478;10.182;2023-04-08T11:30:01;24.33;;;11.70;;
23743;SDS011;12052;53.478;10.182;2023-04-08T11:32:27;22.17;;;11.18;;
23743;SDS011;12052;53.478;10.182;2023-04-08T11:34:53;25.58;;;10.95;;
23743;SDS011;12052;53.478;10.182;2023-04-08T11:37:19;27.75;;;11.18;;
23743;SDS011;12052;53.478;10.182;2023-04-08T11:39:46;24.38;;;10.70;;
23743;SDS011;12052;53.478;10.182;2023-04-08T11:42:31;25.63;;;12.68;;
23743;SDS011;12052;53.478;10.182;2023-04-08T11:44:57;32.05;;;12.23;;
23743;SDS011;12052;53.478;10.182;2023-04-08T11:47:30;21.08;;;10.68;;
23743;SDS011;12052;53.478;10.182;2023-04-08T11:49:59;26.45;;;11.80;;
23743;SDS011;12052;53.478;10.182;2023-04-08T11:52:44;22.73;;;11.40;;
23743;SDS011;12052;53.478;10.182;2023-04-08T11:55:12;23.60;;;11.45;;
23743;SDS011;12052;53.478;10.182;2023-04-08T11:57:46;22.83;;;10.68;;
23743;SDS011;12052;53.478;10.182;2023-04-08T12:00:12;27.27;;;11.88;;
23743;SDS011;12052;53.478;10.182;2023-04-08T12:02:38;23.40;;;10.80;;
23743;SDS011;12052;53.478;10.182;2023-04-08T12:05:05;25.30;;;11.60;;
23743;SDS011;12052;53.478;10.182;2023-04-08T12:07:30;26.38;;;11.60;;
23743;SDS011;12052;53.478;10.182;2023-04-08T12:09:56;30.00;;;11.73;;
23743;SDS011;12052;53.478;10.182;2023-04-08T12:12:22;25.45;;;12.10;;
23743;SDS011;12052;53.478;10.182;2023-04-08T12:14:48;25.17;;;11.57;;
23743;SDS011;12052;53.478;10.182;2023-04-08T12:17:14;23.55;;;11.40;;
23743;SDS011;12052;53.478;10.182;2023-04-08T12:19:39;26.10;;;12.13;;
23743;SDS011;12052;53.478;10.182;2023-04-08T12:22:05;20.58;;;10.50;;
23743;SDS011;12052;53.478;10.182;2023-04-08T12:24:31;22.40;;;11.27;;
23743;SDS011;12052;53.478;10.182;2023-04-08T12:26:57;23.88;;;11.15;;
23743;SDS011;12052;53.478;10.182;2023-04-08T12:29:22;25.63;;;12.20;;
23743;SDS011;12052;53.478;10.182;2023-04-08T12:31:48;27.75;;;12.63;;
23743;SDS011;12052;53.478;10.182;2023-04-08T12:34:13;25.75;;;12.63;;
23743;SDS011;12052;53.478;10.182;2023-04-08T12:36:39;30.38;;;13.00;;
23743;SDS011;12052;53.478;10.182;2023-04-08T12:39:05;25.30;;;11.77;;
23743;SDS011;12052;53.478;10.182;2023-04-08T12:41:31;26.20;;;12.82;;
23743;SDS011;12052;53.478;10.182;2023-04-08T12:43:57;32.95;;;13.05;;
23743;SDS011;12052;53.478;10.182;2023-04-08T12:46:23;29.25;;;12.98;;
23743;SDS011;12052;53.478;10.182;2023-04-08T12:48:48;28.60;;;12.80;;
23743;SDS011;12052;53.478;10.182;2023-04-08T12:51:14;27.67;;;13.98;;
23743;SDS011;12052;53.478;10.182;2023-04-08T12:53:39;28.25;;;12.02;;
23743;SDS011;12052;53.478;10.182;2023-04-08T12:56:05;25.45;;;12.15;;
23743;SDS011;12052;53.478;10.182;2023-04-08T12:58:31;28.17;;;12.48;;
23743;SDS011;12052;53.478;10.182;2023-04-08T13:00:56;24.90;;;11.85;;
23743;SDS011;12052;53.478;10.182;2023-04-08T13:03:22;24.42;;;11.48;;
23743;SDS011;12052;53.478;10.182;2023-04-08T13:05:47;27.85;;;12.60;;
23743;SDS011;12052;53.478;10.182;2023-04-08T13:08:13;30.33;;;13.07;;
23743;SDS011;12052;53.478;10.182;2023-04-08T13:10:40;30.08;;;13.00;;
23743;SDS011;12052;53.478;10.182;2023-04-08T13:13:06;29.55;;;13.50;;
23743;SDS011;12052;53.478;10.182;2023-04-08T13:15:32;27.25;;;12.27;;
23743;SDS011;12052;53.478;10.182;2023-04-08T13:17:57;25.88;;;12.88;;
23743;SDS011;12052;53.478;10.182;2023-04-08T13:20:23;31.60;;;14.18;;
23743;SDS011;12052;53.478;10.182;2023-04-08T13:22:52;27.92;;;13.32;;
23743;SDS011;12052;53.478;10.182;2023-04-08T13:25:18;29.05;;;12.30;;
23743;SDS011;12052;53.478;10.182;2023-04-08T13:27:44;25.75;;;12.95;;
23743;SDS011;12052;53.478;10.182;2023-04-08T13:30:10;25.55;;;12.27;;
23743;SDS011;12052;53.478;10.182;2023-04-08T13:32:36;35.45;;;15.48;;
23743;SDS011;12052;53.478;10.182;2023-04-08T13:35:01;27.23;;;11.15;;
23743;SDS011;12052;53.478;10.182;2023-04-08T13:37:27;25.45;;;11.65;;
23743;SDS011;12052;53.478;10.182;2023-04-08T13:39:53;26.92;;;12.20;;
23743;SDS011;12052;53.478;10.182;2023-04-08T13:42:18;27.77;;;11.65;;
23743;SDS011;12052;53.478;10.182;2023-04-08T13:44:44;25.98;;;12.35;;
23743;SDS011;12052;53.478;10.182;2023-04-08T13:47:10;32.53;;;17.77;;
23743;SDS011;12052;53.478;10.182;2023-04-08T13:49:36;40.95;;;21.35;;
23743;SDS011;12052;53.478;10.182;2023-04-08T13:52:02;36.85;;;15.82;;
23743;SDS011;12052;53.478;10.182;2023-04-08T13:54:27;35.72;;;15.00;;
23743;SDS011;12052;53.478;10.182;2023-04-08T13:56:53;30.90;;;13.55;;
23743;SDS011;12052;53.478;10.182;2023-04-08T13:59:18;34.03;;;13.90;;
23743;SDS011;12052;53.478;10.182;2023-04-08T14:01:44;28.52;;;13.15;;
23743;SDS011;12052;53.478;10.182;2023-04-08T14:04:10;26.00;;;13.15;;
23743;SDS011;12052;53.478;10.182;2023-04-08T14:06:35;34.17;;;15.57;;
23743;SDS011;12052;53.478;10.182;2023-04-08T14:09:01;31.48;;;15.02;;
23743;SDS011;12052;53.478;10.182;2023-04-08T14:11:27;29.15;;;15.32;;
23743;SDS011;12052;53.478;10.182;2023-04-08T14:13:52;41.00;;;20.23;;
23743;SDS011;12052;53.478;10.182;2023-04-08T14:16:18;31.80;;;16.30;;
23743;SDS011;12052;53.478;10.182;2023-04-08T14:18:44;28.05;;;14.85;;
23743;SDS011;12052;53.478;10.182;2023-04-08T14:21:09;30.25;;;15.73;;
23743;SDS011;12052;53.478;10.182;2023-04-08T14:23:38;28.02;;;14.00;;
23743;SDS011;12052;53.478;10.182;2023-04-08T14:26:03;28.48;;;14.50;;
23743;SDS011;12052;53.478;10.182;2023-04-08T14:28:29;26.73;;;13.98;;
23743;SDS011;12052;53.478;10.182;2023-04-08T14:30:55;30.85;;;14.15;;
23743;SDS011;12052;53.478;10.182;2023-04-08T14:33:21;33.05;;;15.73;;
23743;SDS011;12052;53.478;10.182;2023-04-08T14:35:46;33.47;;;14.15;;
23743;SDS011;12052;53.478;10.182;2023-04-08T14:38:12;27.80;;;14.65;;
23743;SDS011;12052;53.478;10.182;2023-04-08T14:40:37;32.15;;;16.23;;
23743;SDS011;12052;53.478;10.182;2023-04-08T14:43:03;30.67;;;16.20;;